createdAt,value
2018-07-28T00:00:13.738Z,0
2018-07-28T00:01:23.864Z,0
2018-07-28T00:02:33.122Z,0
2018-07-28T00:03:43.214Z,0
2018-07-28T00:04:52.743Z,0
2018-07-28T00:06:02.569Z,0
2018-07-28T00:07:12.424Z,0
2018-07-28T00:08:22.497Z,0
2018-07-28T00:09:32.313Z,0
2018-07-28T00:10:42.116Z,0
2018-07-28T00:11:52.173Z,0
2018-07-28T00:13:02.305Z,0
2018-07-28T00:14:11.819Z,0
2018-07-28T00:15:21.651Z,0
2018-07-28T00:16:31.705Z,0
2018-07-28T00:17:41.793Z,0
2018-07-28T00:18:51.385Z,0
2018-07-28T00:20:01.463Z,0
2018-07-28T00:21:11.273Z,0
2018-07-28T00:22:21.340Z,0
2018-07-28T00:23:31.148Z,0
2018-07-28T00:24:41.012Z,0
2018-07-28T00:25:50.828Z,0
2018-07-28T00:27:00.898Z,0
2018-07-28T00:28:10.450Z,0
2018-07-28T00:29:20.533Z,0
2018-07-28T00:30:30.682Z,0
2018-07-28T00:31:40.500Z,0
2018-07-28T00:32:50.591Z,0
2018-07-28T00:34:00.408Z,0
2018-07-28T00:35:10.486Z,0
2018-07-28T00:36:20.350Z,0
2018-07-28T00:37:30.444Z,0
2018-07-28T00:38:40.242Z,0
2018-07-28T00:39:50.041Z,0
2018-07-28T00:40:59.835Z,0
2018-07-28T00:42:09.685Z,0
2018-07-28T00:43:19.730Z,0
2018-07-28T00:44:29.796Z,0
2018-07-28T00:45:39.896Z,0
2018-07-28T00:46:49.706Z,0
2018-07-28T00:47:59.559Z,0
2018-07-28T00:49:09.637Z,0
2018-07-28T00:50:19.685Z,0
2018-07-28T00:51:29.488Z,0
2018-07-28T00:52:39.551Z,0
2018-07-28T00:53:49.385Z,0
2018-07-28T00:54:59.200Z,0
2018-07-28T00:56:09.001Z,0
2018-07-28T00:57:18.534Z,0
2018-07-28T00:58:28.341Z,0
2018-07-28T00:59:38.193Z,0
2018-07-28T01:00:48.273Z,0
2018-07-28T01:01:58.064Z,0
2018-07-28T01:03:07.856Z,0
2018-07-28T01:04:17.933Z,0
2018-07-28T01:05:28.044Z,0
2018-07-28T01:06:38.117Z,0
2018-07-28T01:07:48.203Z,0
2018-07-28T01:08:58.000Z,0
2018-07-28T01:10:07.798Z,0
2018-07-28T01:11:17.898Z,0
2018-07-28T01:12:27.981Z,0
2018-07-28T01:13:37.772Z,0
2018-07-28T01:14:47.571Z,0
2018-07-28T01:15:57.648Z,0
2018-07-28T01:17:07.489Z,0
2018-07-28T01:18:17.599Z,0
2018-07-28T01:19:27.142Z,0
2018-07-28T01:20:36.947Z,0
2018-07-28T01:21:46.744Z,0
2018-07-28T01:22:56.865Z,0
2018-07-28T01:24:06.939Z,0
2018-07-28T01:25:16.747Z,0
2018-07-28T01:26:26.282Z,0
2018-07-28T01:27:36.080Z,0
2018-07-28T01:28:45.939Z,0
2018-07-28T01:29:55.474Z,0
2018-07-28T01:31:05.572Z,0
2018-07-28T01:32:15.642Z,0
2018-07-28T01:33:25.440Z,0
2018-07-28T01:34:35.285Z,0
2018-07-28T01:35:45.362Z,0
2018-07-28T01:36:54.941Z,0
2018-07-28T01:38:05.015Z,0
2018-07-28T01:39:14.839Z,0
2018-07-28T01:40:28.860Z,0
2018-07-28T01:41:38.944Z,0
2018-07-28T01:42:48.743Z,0
2018-07-28T01:43:58.530Z,0
2018-07-28T01:45:08.382Z,0
2018-07-28T01:46:18.243Z,0
2018-07-28T01:47:28.331Z,0
2018-07-28T01:48:38.129Z,0
2018-07-28T01:49:48.213Z,0
2018-07-28T01:50:58.274Z,0
2018-07-28T01:52:08.409Z,0
2018-07-28T01:53:18.214Z,0
2018-07-28T01:54:28.022Z,0
2018-07-28T01:55:38.089Z,0
2018-07-28T01:56:48.166Z,0
2018-07-28T01:57:58.298Z,0
2018-07-28T01:59:08.094Z,0
2018-07-28T02:00:17.890Z,0
2018-07-28T02:01:27.968Z,0
2018-07-28T02:02:37.509Z,0
2018-07-28T02:03:47.651Z,0
2018-07-28T02:04:57.711Z,0
2018-07-28T02:06:07.516Z,0
2018-07-28T02:07:17.591Z,0
2018-07-28T02:08:27.407Z,0
2018-07-28T02:09:37.528Z,0
2018-07-28T02:10:47.616Z,0
2018-07-28T02:11:57.140Z,0
2018-07-28T02:13:07.210Z,0
2018-07-28T02:14:17.269Z,0
2018-07-28T02:15:27.109Z,0
2018-07-28T02:16:36.918Z,0
2018-07-28T02:17:47.016Z,0
2018-07-28T02:18:57.105Z,0
2018-07-28T02:20:07.185Z,0
2018-07-28T02:21:17.307Z,0
2018-07-28T02:22:27.109Z,0
2018-07-28T02:23:37.177Z,0
2018-07-28T02:24:47.259Z,0
2018-07-28T02:25:57.324Z,0
2018-07-28T02:27:07.454Z,0
2018-07-28T02:28:17.264Z,0
2018-07-28T02:29:27.048Z,0
2018-07-28T02:30:36.616Z,0
2018-07-28T02:31:46.456Z,0
2018-07-28T02:32:56.602Z,5
2018-07-28T02:34:06.675Z,5
2018-07-28T02:35:16.491Z,5
2018-07-28T02:36:26.317Z,5
2018-07-28T02:37:36.413Z,5
2018-07-28T02:38:46.554Z,5
2018-07-28T02:39:56.093Z,5
2018-07-28T02:41:06.165Z,5
2018-07-28T02:42:16.246Z,5
2018-07-28T02:43:26.316Z,10
2018-07-28T02:44:36.198Z,10
2018-07-28T02:45:46.271Z,10
2018-07-28T02:46:56.141Z,10
2018-07-28T02:48:06.000Z,10
2018-07-28T02:49:16.057Z,10
2018-07-28T02:50:25.651Z,15
2018-07-28T02:51:35.447Z,15
2018-07-28T02:52:45.563Z,15
2018-07-28T02:53:55.652Z,15
2018-07-28T02:55:05.755Z,15
2018-07-28T02:56:15.871Z,15
2018-07-28T02:57:25.948Z,20
2018-07-28T02:58:36.031Z,20
2018-07-28T02:59:46.128Z,20
2018-07-28T03:03:44.635Z,25
2018-07-28T03:04:54.739Z,25
2018-07-28T03:06:04.822Z,30
2018-07-28T03:07:14.898Z,30
2018-07-28T03:08:24.988Z,30
2018-07-28T03:09:34.845Z,30
2018-07-28T03:10:44.111Z,30
2018-07-28T03:11:53.936Z,35
2018-07-28T03:13:03.760Z,35
2018-07-28T03:14:13.566Z,35
2018-07-28T03:15:23.416Z,40
2018-07-28T03:16:33.523Z,40
2018-07-28T03:17:42.806Z,40
2018-07-28T03:18:52.875Z,40
2018-07-28T03:20:02.953Z,45
2018-07-28T03:21:12.571Z,45
2018-07-28T03:22:22.388Z,45
2018-07-28T03:23:32.451Z,45
2018-07-28T03:24:42.529Z,50
2018-07-28T03:25:52.606Z,50
2018-07-28T03:27:02.716Z,50
2018-07-28T03:28:12.790Z,50
2018-07-28T03:29:22.603Z,55
2018-07-28T03:30:32.676Z,55
2018-07-28T03:31:42.493Z,60
2018-07-28T03:32:52.674Z,60
2018-07-28T03:34:02.751Z,60
2018-07-28T03:35:12.828Z,60
2018-07-28T03:36:22.634Z,60
2018-07-28T03:37:31.889Z,65
2018-07-28T03:38:41.737Z,65
2018-07-28T03:39:51.543Z,65
2018-07-28T03:41:01.612Z,65
2018-07-28T03:42:11.401Z,70
2018-07-28T03:43:21.471Z,70
2018-07-28T03:44:31.329Z,70
2018-07-28T03:45:41.393Z,70
2018-07-28T03:46:51.203Z,70
2018-07-28T03:48:01.016Z,70
2018-07-28T03:49:11.211Z,70
2018-07-28T03:50:21.355Z,75
2018-07-28T03:51:31.146Z,75
2018-07-28T03:52:40.683Z,75
2018-07-28T03:53:50.757Z,75
2018-07-28T03:55:00.557Z,75
2018-07-28T03:56:10.419Z,80
2018-07-28T03:57:20.477Z,80
2018-07-28T03:58:30.276Z,80
2018-07-28T03:59:40.353Z,80
2018-07-28T04:00:50.432Z,80
2018-07-28T04:02:00.298Z,85
2018-07-28T04:03:10.377Z,85
2018-07-28T04:04:20.202Z,85
2018-07-28T04:05:29.722Z,90
2018-07-28T04:06:39.514Z,85
2018-07-28T04:07:49.639Z,85
2018-07-28T04:08:59.707Z,90
2018-07-28T04:10:09.800Z,90
2018-07-28T04:11:19.873Z,95
2018-07-28T04:12:29.690Z,100
2018-07-28T04:13:39.535Z,100
2018-07-28T04:14:49.347Z,100
2018-07-28T04:15:59.416Z,100
2018-07-28T04:17:09.211Z,100
2018-07-28T04:18:18.463Z,105
2018-07-28T04:19:28.580Z,105
2018-07-28T04:20:38.652Z,105
2018-07-28T04:21:48.696Z,110
2018-07-28T04:22:58.499Z,110
2018-07-28T04:24:08.309Z,110
2018-07-28T04:25:18.151Z,110
2018-07-28T04:26:27.955Z,110
2018-07-28T04:27:37.758Z,110
2018-07-28T04:28:48.128Z,105
2018-07-28T04:29:58.191Z,115
2018-07-28T04:31:08.049Z,115
2018-07-28T04:32:18.118Z,115
2018-07-28T04:33:27.900Z,115
2018-07-28T04:34:37.987Z,115
2018-07-28T04:35:47.790Z,115
2018-07-28T04:36:57.368Z,120
2018-07-28T04:38:06.904Z,115
2018-07-28T04:39:16.690Z,120
2018-07-28T04:40:26.766Z,125
2018-07-28T04:41:36.024Z,120
2018-07-28T04:42:46.183Z,120
2018-07-28T04:43:56.116Z,115
2018-07-28T04:45:06.211Z,110
2018-07-28T04:46:16.027Z,110
2018-07-28T04:47:26.115Z,125
2018-07-28T04:48:35.977Z,120
2018-07-28T04:49:45.257Z,125
2018-07-28T04:50:55.059Z,125
2018-07-28T04:52:04.311Z,130
2018-07-28T04:53:14.127Z,125
2018-07-28T04:54:23.979Z,130
2018-07-28T04:55:34.056Z,130
2018-07-28T04:56:43.858Z,130
2018-07-28T04:57:53.954Z,135
2018-07-28T04:59:04.018Z,135
2018-07-28T05:00:13.866Z,135
2018-07-28T05:01:23.944Z,135
2018-07-28T05:02:33.742Z,130
2018-07-28T05:03:43.544Z,145
2018-07-28T05:04:53.092Z,140
2018-07-28T05:06:02.951Z,140
2018-07-28T05:07:13.118Z,145
2018-07-28T05:08:23.220Z,145
2018-07-28T05:09:33.019Z,145
2018-07-28T05:10:42.826Z,145
2018-07-28T05:11:52.982Z,145
2018-07-28T05:13:03.064Z,145
2018-07-28T05:14:12.586Z,145
2018-07-28T05:15:22.116Z,150
2018-07-28T05:16:31.912Z,150
2018-07-28T05:17:42.025Z,150
2018-07-28T05:18:51.563Z,150
2018-07-28T05:20:01.098Z,155
2018-07-28T05:21:10.922Z,155
2018-07-28T05:22:20.985Z,155
2018-07-28T05:23:31.129Z,155
2018-07-28T05:24:41.217Z,155
2018-07-28T05:25:51.292Z,155
2018-07-28T05:27:01.087Z,160
2018-07-28T05:28:10.900Z,160
2018-07-28T05:29:20.759Z,155
2018-07-28T05:30:30.832Z,160
2018-07-28T05:31:40.645Z,160
2018-07-28T05:32:50.733Z,165
2018-07-28T05:34:00.792Z,165
2018-07-28T05:35:10.362Z,160
2018-07-28T05:36:20.422Z,160
2018-07-28T05:37:30.234Z,160
2018-07-28T05:38:40.306Z,160
2018-07-28T05:39:50.395Z,160
2018-07-28T05:40:59.965Z,165
2018-07-28T05:42:09.764Z,160
2018-07-28T05:43:19.822Z,160
2018-07-28T05:44:29.889Z,160
2018-07-28T05:45:39.950Z,160
2018-07-28T05:46:50.092Z,160
2018-07-28T05:48:00.185Z,165
2018-07-28T05:49:10.265Z,160
2018-07-28T05:50:20.680Z,150
2018-07-28T05:51:30.499Z,140
2018-07-28T05:52:40.631Z,140
2018-07-28T05:53:50.727Z,155
2018-07-28T05:55:00.533Z,165
2018-07-28T05:56:09.794Z,165
2018-07-28T05:57:19.618Z,170
2018-07-28T05:58:29.200Z,155
2018-07-28T05:59:39.267Z,165
2018-07-28T06:00:49.065Z,165
2018-07-28T06:01:58.860Z,175
2018-07-28T06:03:08.942Z,170
2018-07-28T06:04:18.789Z,170
2018-07-28T06:05:28.846Z,170
2018-07-28T06:06:38.930Z,170
2018-07-28T06:07:48.714Z,175
2018-07-28T06:08:58.510Z,175
2018-07-28T06:10:08.357Z,175
2018-07-28T06:11:18.153Z,180
2018-07-28T06:12:28.227Z,175
2018-07-28T06:13:38.277Z,175
2018-07-28T06:14:48.065Z,175
2018-07-28T06:15:57.904Z,175
2018-07-28T06:17:07.982Z,175
2018-07-28T06:18:18.053Z,180
2018-07-28T06:19:27.831Z,180
2018-07-28T06:20:37.903Z,180
2018-07-28T06:21:47.207Z,180
2018-07-28T06:22:57.282Z,180
2018-07-28T06:24:07.346Z,180
2018-07-28T06:25:16.888Z,185
2018-07-28T06:26:26.422Z,180
2018-07-28T06:27:36.537Z,180
2018-07-28T06:28:46.620Z,180
2018-07-28T06:29:56.160Z,180
2018-07-28T06:31:05.694Z,180
2018-07-28T06:32:15.232Z,180
2018-07-28T06:33:25.375Z,180
2018-07-28T06:34:35.169Z,180
2018-07-28T06:35:44.975Z,180
2018-07-28T06:36:55.054Z,180
2018-07-28T06:38:04.875Z,185
2018-07-28T06:39:15.028Z,185
2018-07-28T06:40:25.382Z,185
2018-07-28T06:41:35.197Z,185
2018-07-28T06:42:45.271Z,185
2018-07-28T06:43:54.522Z,185
2018-07-28T06:45:04.390Z,185
2018-07-28T06:46:14.489Z,185
2018-07-28T06:47:24.792Z,185
2018-07-28T06:48:34.940Z,185
2018-07-28T06:49:44.746Z,185
2018-07-28T06:50:54.866Z,185
2018-07-28T06:52:04.406Z,185
2018-07-28T06:53:14.471Z,185
2018-07-28T06:54:24.541Z,185
2018-07-28T06:55:34.617Z,190
2018-07-28T06:56:44.453Z,190
2018-07-28T06:57:54.267Z,190
2018-07-28T06:59:04.066Z,190
2018-07-28T07:00:13.876Z,190
2018-07-28T07:01:23.953Z,190
2018-07-28T07:02:33.532Z,190
2018-07-28T07:03:43.320Z,190
2018-07-28T07:04:53.794Z,190
2018-07-28T07:06:03.603Z,190
2018-07-28T07:07:13.145Z,190
2018-07-28T07:08:22.995Z,190
2018-07-28T07:09:32.795Z,190
2018-07-28T07:10:42.871Z,195
2018-07-28T07:11:53.077Z,195
2018-07-28T07:13:03.162Z,195
2018-07-28T07:14:13.034Z,195
2018-07-28T07:15:22.836Z,195
2018-07-28T07:16:32.644Z,200
2018-07-28T07:17:42.716Z,200
2018-07-28T07:18:52.785Z,200
2018-07-28T07:20:02.629Z,200
2018-07-28T07:21:12.700Z,200
2018-07-28T07:22:22.223Z,200
2018-07-28T07:23:32.035Z,200
2018-07-28T07:24:42.232Z,200
2018-07-28T07:25:52.378Z,200
2018-07-28T07:27:02.175Z,200
2018-07-28T07:28:12.223Z,200
2018-07-28T07:29:22.296Z,200
2018-07-28T07:30:32.573Z,200
2018-07-28T07:31:47.316Z,205
2018-07-28T07:32:56.841Z,205
2018-07-28T07:34:06.930Z,205
2018-07-28T07:35:16.748Z,205
2018-07-28T07:36:26.740Z,205
2018-07-28T07:37:36.882Z,210
2018-07-28T07:38:46.150Z,215
2018-07-28T07:39:56.217Z,215
2018-07-28T07:41:05.756Z,215
2018-07-28T07:42:15.499Z,210
2018-07-28T07:43:25.354Z,210
2018-07-28T07:44:35.158Z,210
2018-07-28T07:45:44.962Z,210
2018-07-28T07:46:55.047Z,210
2018-07-28T07:48:05.128Z,210
2018-07-28T07:49:14.426Z,215
2018-07-28T07:50:24.497Z,215
2018-07-28T07:51:34.303Z,225
2018-07-28T07:52:44.124Z,220
2018-07-28T07:53:54.020Z,220
2018-07-28T07:55:04.209Z,220
2018-07-28T07:56:14.284Z,220
2018-07-28T07:57:24.363Z,225
2018-07-28T07:58:34.174Z,220
2018-07-28T07:59:43.693Z,220
2018-07-28T08:00:53.543Z,225
2018-07-28T08:02:03.358Z,225
2018-07-28T08:03:13.150Z,215
2018-07-28T08:04:23.215Z,230
2018-07-28T08:05:33.298Z,220
2018-07-28T08:06:43.277Z,230
2018-07-28T08:07:53.375Z,235
2018-07-28T08:09:03.463Z,235
2018-07-28T08:10:12.998Z,230
2018-07-28T08:11:23.074Z,235
2018-07-28T08:12:32.945Z,235
2018-07-28T08:13:42.476Z,240
2018-07-28T08:14:52.542Z,205
2018-07-28T08:16:02.348Z,230
2018-07-28T08:17:12.436Z,235
2018-07-28T08:18:22.582Z,235
2018-07-28T08:19:32.399Z,225
2018-07-28T08:20:42.488Z,230
2018-07-28T08:21:52.295Z,230
2018-07-28T08:23:02.127Z,250
2018-07-28T08:24:11.966Z,270
2018-07-28T08:25:22.036Z,280
2018-07-28T08:26:32.117Z,300
2018-07-28T08:27:42.198Z,345
2018-07-28T08:28:52.287Z,355
2018-07-28T08:30:02.435Z,405
2018-07-28T08:31:11.981Z,465
2018-07-28T08:32:22.055Z,500
2018-07-28T08:33:32.205Z,485
2018-07-28T08:34:42.014Z,520
2018-07-28T08:35:52.144Z,520
2018-07-28T08:37:02.239Z,485
2018-07-28T08:38:11.757Z,465
2018-07-28T08:39:21.845Z,470
2018-07-28T08:40:31.649Z,475
2018-07-28T08:41:41.773Z,485
2018-07-28T08:42:51.851Z,495
2018-07-28T08:44:01.646Z,525
2018-07-28T08:45:11.724Z,535
2018-07-28T08:46:21.803Z,525
2018-07-28T08:47:31.928Z,505
2018-07-28T08:48:41.726Z,485
2018-07-28T08:49:51.531Z,485
2018-07-28T08:51:01.070Z,485
2018-07-28T08:52:10.591Z,490
2018-07-28T08:53:20.730Z,505
2018-07-28T08:54:30.845Z,520
2018-07-28T08:55:40.936Z,505
2018-07-28T08:56:50.744Z,490
2018-07-28T08:58:00.284Z,470
2018-07-28T08:59:09.857Z,455
2018-07-28T09:00:19.675Z,455
2018-07-28T09:01:29.769Z,475
2018-07-28T09:02:39.857Z,495
2018-07-28T09:03:49.669Z,515
2018-07-28T09:04:59.517Z,525
2018-07-28T09:06:09.479Z,530
2018-07-28T09:07:19.560Z,520
2018-07-28T09:08:29.652Z,500
2018-07-28T09:09:39.721Z,450
2018-07-28T09:10:50.169Z,425
2018-07-28T09:12:00.247Z,415
2018-07-28T09:13:10.340Z,415
2018-07-28T09:14:20.416Z,425
2018-07-28T09:15:30.228Z,445
2018-07-28T09:16:40.434Z,475
2018-07-28T09:17:50.293Z,500
2018-07-28T09:19:00.372Z,520
2018-07-28T09:20:09.915Z,530
2018-07-28T09:21:19.989Z,585
2018-07-28T09:22:29.600Z,615
2018-07-28T09:23:39.858Z,655
2018-07-28T09:24:50.043Z,660
2018-07-28T09:25:59.846Z,630
2018-07-28T09:27:09.914Z,570
2018-07-28T09:28:19.756Z,530
2018-07-28T09:29:29.824Z,460
2018-07-28T09:30:40.304Z,400
2018-07-28T09:31:50.395Z,390
2018-07-28T09:33:00.208Z,425
2018-07-28T09:34:10.330Z,465
2018-07-28T09:35:20.154Z,420
2018-07-28T09:36:29.965Z,425
2018-07-28T09:37:40.339Z,415
2018-07-28T09:38:50.421Z,450
2018-07-28T09:40:00.537Z,380
2018-07-28T09:41:09.805Z,395
2018-07-28T09:42:19.605Z,415
2018-07-28T09:43:29.145Z,445
2018-07-28T09:44:38.953Z,480
2018-07-28T09:45:48.820Z,525
2018-07-28T09:46:59.124Z,485
2018-07-28T09:48:08.939Z,465
2018-07-28T09:49:18.754Z,470
2018-07-28T09:50:28.828Z,475
2018-07-28T09:51:38.996Z,440
2018-07-28T09:52:49.083Z,430
2018-07-28T09:53:58.900Z,425
2018-07-28T09:55:08.697Z,425
2018-07-28T09:56:18.877Z,370
2018-07-28T09:57:28.807Z,305
2018-07-28T09:58:38.349Z,295
2018-07-28T09:59:48.148Z,225
2018-07-28T10:00:58.259Z,165
2018-07-28T10:02:08.085Z,155
2018-07-28T10:03:17.994Z,190
2018-07-28T10:04:27.800Z,195
2018-07-28T10:05:38.251Z,190
2018-07-28T10:06:48.130Z,195
2018-07-28T10:07:57.916Z,190
2018-07-28T10:09:07.766Z,185
2018-07-28T10:10:17.839Z,190
2018-07-28T10:11:27.632Z,200
2018-07-28T10:12:37.689Z,215
2018-07-28T10:13:47.498Z,240
2018-07-28T10:14:57.341Z,265
2018-07-28T10:16:07.483Z,270
2018-07-28T10:17:17.638Z,270
2018-07-28T10:18:27.708Z,285
2018-07-28T10:19:37.519Z,290
2018-07-28T10:20:47.647Z,270
2018-07-28T10:21:57.190Z,245
2018-07-28T10:23:07.697Z,225
2018-07-28T10:24:17.755Z,230
2018-07-28T10:25:27.569Z,250
2018-07-28T10:26:37.688Z,275
2018-07-28T10:27:47.498Z,290
2018-07-28T10:28:57.569Z,280
2018-07-28T10:30:07.519Z,260
2018-07-28T10:31:17.380Z,235
2018-07-28T10:32:27.516Z,215
2018-07-28T10:33:37.601Z,210
2018-07-28T10:34:47.160Z,215
2018-07-28T10:35:57.255Z,230
2018-07-28T10:37:07.070Z,240
2018-07-28T10:38:17.208Z,275
2018-07-28T10:39:27.303Z,295
2018-07-28T10:40:37.113Z,285
2018-07-28T10:41:46.907Z,285
2018-07-28T10:42:56.974Z,275
2018-07-28T10:44:07.084Z,265
2018-07-28T10:45:17.164Z,280
2018-07-28T10:46:27.237Z,320
2018-07-28T10:47:37.048Z,370
2018-07-28T10:48:46.884Z,405
2018-07-28T10:49:56.759Z,410
2018-07-28T10:51:06.569Z,410
2018-07-28T10:52:16.650Z,420
2018-07-28T10:53:26.727Z,420
2018-07-28T10:54:36.779Z,420
2018-07-28T10:55:46.641Z,395
2018-07-28T10:56:56.762Z,365
2018-07-28T10:58:06.298Z,355
2018-07-28T10:59:16.350Z,360
2018-07-28T11:00:26.401Z,360
2018-07-28T11:01:40.151Z,355
2018-07-28T11:02:49.675Z,365
2018-07-28T11:03:59.755Z,360
2018-07-28T11:05:09.822Z,340
2018-07-28T11:06:19.346Z,315
2018-07-28T11:07:29.239Z,305
2018-07-28T11:08:39.036Z,270
2018-07-28T11:09:48.304Z,255
2018-07-28T11:10:58.377Z,245
2018-07-28T11:12:07.941Z,215
2018-07-28T11:13:18.086Z,180
2018-07-28T11:14:27.892Z,170
2018-07-28T11:15:37.969Z,165
2018-07-28T11:16:48.022Z,185
2018-07-28T11:17:58.095Z,170
2018-07-28T11:19:08.950Z,170
2018-07-28T11:20:19.125Z,160
2018-07-28T11:21:29.193Z,160
2018-07-28T11:22:38.923Z,185
2018-07-28T11:23:48.741Z,190
2018-07-28T11:24:58.330Z,170
2018-07-28T11:26:09.048Z,145
2018-07-28T11:27:18.831Z,130
2018-07-28T11:28:28.631Z,135
2018-07-28T11:29:38.444Z,160
2018-07-28T11:30:48.020Z,200
2018-07-28T11:31:58.471Z,230
2018-07-28T11:33:08.013Z,255
2018-07-28T11:34:18.093Z,295
2018-07-28T11:35:27.913Z,320
2018-07-28T11:36:38.049Z,335
2018-07-28T11:37:48.242Z,340
2018-07-28T11:38:58.131Z,330
2018-07-28T11:40:08.205Z,300
2018-07-28T11:41:18.288Z,275
2018-07-28T11:42:28.417Z,280
2018-07-28T11:43:38.502Z,280
2018-07-28T11:44:48.577Z,280
2018-07-28T11:45:59.004Z,280
2018-07-28T11:47:09.153Z,280
2018-07-28T11:48:19.277Z,305
2018-07-28T11:49:28.817Z,380
2018-07-28T11:50:38.904Z,435
2018-07-28T11:51:48.726Z,480
2018-07-28T11:52:58.518Z,455
2018-07-28T11:54:08.113Z,355
2018-07-28T11:55:18.194Z,260
2018-07-28T11:56:27.983Z,220
2018-07-28T11:57:37.516Z,250
2018-07-28T11:58:47.314Z,295
2018-07-28T11:59:57.448Z,240
2018-07-28T12:01:07.252Z,215
2018-07-28T12:02:17.331Z,255
2018-07-28T12:03:27.123Z,290
2018-07-28T12:04:36.926Z,220
2018-07-28T12:05:47.199Z,120
2018-07-28T12:06:57.008Z,125
2018-07-28T12:08:06.807Z,190
2018-07-28T12:09:16.881Z,215
2018-07-28T12:10:26.937Z,190
2018-07-28T12:11:37.062Z,200
2018-07-28T12:12:47.411Z,210
2018-07-28T12:13:56.949Z,270
2018-07-28T12:15:06.499Z,345
2018-07-28T12:16:16.567Z,455
2018-07-28T12:17:26.411Z,460
2018-07-28T12:18:36.439Z,425
2018-07-28T12:19:46.541Z,375
2018-07-28T12:20:56.617Z,445
2018-07-28T12:22:06.421Z,470
2018-07-28T12:23:16.281Z,520
2018-07-28T12:24:26.344Z,570
2018-07-28T12:25:36.157Z,545
2018-07-28T12:26:45.961Z,650
2018-07-28T12:27:56.035Z,650
2018-07-28T12:29:06.152Z,615
2018-07-28T12:30:15.964Z,625
2018-07-28T12:31:26.040Z,600
2018-07-28T12:32:36.103Z,590
2018-07-28T12:33:46.175Z,580
2018-07-28T12:34:56.201Z,545
2018-07-28T12:36:06.313Z,630
2018-07-28T12:37:16.104Z,745
2018-07-28T12:38:25.627Z,1050
2018-07-28T12:39:35.428Z,1070
2018-07-28T12:40:45.569Z,1010
2018-07-28T12:41:55.356Z,805
2018-07-28T12:43:05.433Z,775
2018-07-28T12:44:15.515Z,605
2018-07-28T12:45:25.601Z,585
2018-07-28T12:46:35.725Z,565
2018-07-28T12:47:45.526Z,605
2018-07-28T12:48:55.608Z,570
2018-07-28T12:50:05.689Z,540
2018-07-28T12:51:15.235Z,575
2018-07-28T12:52:25.355Z,585
2018-07-28T12:53:35.421Z,565
2018-07-28T12:54:45.499Z,550
2018-07-28T12:55:55.592Z,540
2018-07-28T12:57:05.127Z,525
2018-07-28T12:58:14.974Z,470
2018-07-28T12:59:25.052Z,510
2018-07-28T13:00:35.129Z,420
2018-07-28T13:01:45.220Z,420
2018-07-28T13:02:55.294Z,370
2018-07-28T13:04:04.645Z,405
2018-07-28T13:05:14.723Z,445
2018-07-28T13:06:24.255Z,475
2018-07-28T13:07:34.320Z,435
2018-07-28T13:08:44.123Z,360
2018-07-28T13:09:54.521Z,300
2018-07-28T13:11:04.394Z,265
2018-07-28T13:12:13.387Z,230
2018-07-28T13:13:23.199Z,225
2018-07-28T13:14:32.989Z,260
2018-07-28T13:15:43.113Z,340
2018-07-28T13:16:53.167Z,460
2018-07-28T13:18:03.720Z,465
2018-07-28T13:19:13.267Z,405
2018-07-28T13:20:22.801Z,540
2018-07-28T13:21:32.654Z,895
2018-07-28T13:22:42.447Z,975
2018-07-28T13:23:52.909Z,790
2018-07-28T13:25:02.977Z,770
2018-07-28T13:26:13.053Z,755
2018-07-28T13:27:22.912Z,735
2018-07-28T13:28:33.000Z,690
2018-07-28T13:29:43.236Z,680
2018-07-28T13:30:53.338Z,675
2018-07-28T13:32:03.137Z,650
2018-07-28T13:33:13.012Z,625
2018-07-28T13:34:23.104Z,605
2018-07-28T13:35:33.555Z,585
2018-07-28T13:36:43.642Z,575
2018-07-28T13:37:53.497Z,560
2018-07-28T13:39:03.362Z,565
2018-07-28T13:40:13.170Z,575
2018-07-28T13:41:23.248Z,590
2018-07-28T13:42:33.065Z,585
2018-07-28T13:43:42.886Z,595
2018-07-28T13:44:53.005Z,605
2018-07-28T13:46:03.076Z,630
2018-07-28T13:47:13.141Z,640
2018-07-28T13:48:22.680Z,610
2018-07-28T13:49:32.494Z,635
2018-07-28T13:50:42.351Z,650
2018-07-28T13:51:52.200Z,635
2018-07-28T13:53:02.015Z,610
2018-07-28T13:54:11.827Z,575
2018-07-28T13:55:21.645Z,545
2018-07-28T13:56:31.519Z,570
2018-07-28T13:57:41.325Z,625
2018-07-28T13:58:50.866Z,685
2018-07-28T14:00:00.972Z,790
2018-07-28T14:01:11.039Z,840
2018-07-28T14:02:20.894Z,915
2018-07-28T14:03:30.969Z,815
2018-07-28T14:04:40.247Z,745
2018-07-28T14:05:50.343Z,715
2018-07-28T14:07:00.160Z,755
2018-07-28T14:08:10.013Z,730
2018-07-28T14:09:20.088Z,785
2018-07-28T14:10:29.895Z,955
2018-07-28T14:11:39.692Z,1315
2018-07-28T14:12:49.802Z,1715
2018-07-28T14:13:59.678Z,1255
2018-07-28T14:15:09.830Z,1310
2018-07-28T14:16:19.642Z,990
2018-07-28T14:17:29.452Z,1140
2018-07-28T14:18:39.275Z,1625
2018-07-28T14:19:49.438Z,1575
2018-07-28T14:20:59.548Z,3310
2018-07-28T14:22:09.357Z,1035
2018-07-28T14:23:19.510Z,830
2018-07-28T14:24:28.789Z,705
2018-07-28T14:25:38.920Z,625
2018-07-28T14:26:48.454Z,575
2018-07-28T14:27:58.535Z,600
2018-07-28T14:29:08.352Z,615
2018-07-28T14:30:18.155Z,665
2018-07-28T14:31:28.519Z,860
2018-07-28T14:32:38.604Z,690
2018-07-28T14:33:48.185Z,705
2018-07-28T14:34:58.266Z,685
2018-07-28T14:36:07.824Z,665
2018-07-28T14:37:17.426Z,665
2018-07-28T14:38:27.231Z,645
2018-07-28T14:39:37.031Z,610
2018-07-28T14:40:46.841Z,775
2018-07-28T14:41:56.920Z,535
2018-07-28T14:43:06.518Z,455
2018-07-28T14:44:16.612Z,495
2018-07-28T14:45:26.692Z,510
2018-07-28T14:46:36.753Z,535
2018-07-28T14:47:46.820Z,2310
2018-07-28T14:48:56.931Z,2750
2018-07-28T14:50:06.465Z,740
2018-07-28T14:51:16.553Z,2885
2018-07-28T14:52:26.615Z,2355
2018-07-28T14:53:36.150Z,2650
2018-07-28T14:54:45.733Z,2685
2018-07-28T14:55:55.823Z,730
2018-07-28T14:57:05.375Z,1665
2018-07-28T14:58:15.183Z,2620
2018-07-28T14:59:25.247Z,740
2018-07-28T15:00:35.111Z,580
2018-07-28T15:01:45.238Z,625
2018-07-28T15:02:55.312Z,510
2018-07-28T15:04:05.387Z,465
2018-07-28T15:05:15.241Z,445
2018-07-28T15:06:25.363Z,545
2018-07-28T15:07:35.635Z,500
2018-07-28T15:08:45.446Z,440
2018-07-28T15:09:55.262Z,400
2018-07-28T15:11:05.359Z,535
2018-07-28T15:12:14.665Z,465
2018-07-28T15:13:23.930Z,455
2018-07-28T15:14:33.733Z,525
2018-07-28T15:15:43.538Z,490
2018-07-28T15:16:53.060Z,545
2018-07-28T15:18:03.182Z,510
2018-07-28T15:19:13.253Z,385
2018-07-28T15:20:23.069Z,345
2018-07-28T15:21:32.693Z,310
2018-07-28T15:22:42.490Z,315
2018-07-28T15:23:52.609Z,310
2018-07-28T15:25:02.422Z,250
2018-07-28T15:26:12.486Z,245
2018-07-28T15:27:22.035Z,330
2018-07-28T15:28:32.124Z,310
2018-07-28T15:29:41.985Z,420
2018-07-28T15:30:52.075Z,1545
2018-07-28T15:32:02.179Z,830
2018-07-28T15:33:11.970Z,2335
2018-07-28T15:34:21.785Z,2170
2018-07-28T15:35:31.908Z,2490
2018-07-28T15:36:41.716Z,690
2018-07-28T15:37:51.787Z,450
2018-07-28T15:39:01.331Z,380
2018-07-28T15:40:11.140Z,415
2018-07-28T15:41:20.988Z,375
2018-07-28T15:42:30.773Z,395
2018-07-28T15:43:40.858Z,440
2018-07-28T15:44:50.670Z,545
2018-07-28T15:46:00.759Z,615
2018-07-28T15:47:10.351Z,2210
2018-07-28T15:48:20.370Z,2250
2018-07-28T15:49:29.731Z,1915
2018-07-28T15:50:39.832Z,2370
2018-07-28T15:51:49.642Z,2365
2018-07-28T15:52:59.527Z,1025
2018-07-28T15:54:09.606Z,1645
2018-07-28T15:55:19.142Z,1285
2018-07-28T15:56:29.071Z,480
2018-07-28T15:57:38.604Z,450
2018-07-28T15:58:48.468Z,560
2018-07-28T15:59:58.264Z,450
2018-07-28T16:01:07.812Z,460
2018-07-28T16:02:17.892Z,435
2018-07-28T16:03:27.952Z,410
2018-07-28T16:04:37.552Z,395
2018-07-28T16:05:46.812Z,380
2018-07-28T16:06:56.355Z,430
2018-07-28T16:08:05.898Z,605
2018-07-28T16:09:15.428Z,640
2018-07-28T16:10:25.590Z,610
2018-07-28T16:11:35.703Z,560
2018-07-28T16:12:45.238Z,700
2018-07-28T16:13:55.063Z,665
2018-07-28T16:15:05.131Z,670
2018-07-28T16:16:15.005Z,945
2018-07-28T16:17:25.098Z,775
2018-07-28T16:18:34.894Z,675